Time;durP1;ratioP1;P1;durP2;ratioP2;P2;SDS_P1;SDS_P2;PMS_P1;PMS_P2;Temp;Humidity;BMP_temperature;BMP_pressure;BME280_temperature;BME280_humidity;BME280_pressure;Samples;Min_cycle;Max_cycle;Signal;HPM_P1;HPM_P2
2022/07/06 00:21:42;;;;;;;2.1;0.6;;;;;;;;;;;;;-80
2022/07/06 00:22:23;;;;;;;;;;;;;;;14.24;48.42969;102629.6;;;;-80
2022/07/06 00:28:42;;;;;;;;;;;;;;;;;;;;;
2022/07/06 00:32:25;;;;;;;;;;;;;;;13.88;49.01953;102641.7;;;;-77
2022/07/06 00:37:28;;;;;;;;;;;;;;;13.83;49.18262;102637.2;;;;-78
2022/07/06 00:42:37;;;;;;;;;;;;;;;13.79;49.22266;102637.5;;;;-78
2022/07/06 00:45:57;;;;;;;;;;;;;;;14.04;48.9248;102631.5;;;;-77
2022/07/06 00:52:29;;;;;;;;;;;;;;;14.03;48.86719;102627.9;;;;-82
2022/07/06 00:57:46;;;;;;;;;;;;;;;14.24;48.56348;102629.7;;;;-81
2022/07/06 01:01:11;;;;;;;;;;;;;;;13.77;49.20996;102622.1;;;;-80
2022/07/06 01:06:23;;;;;;;;;;;;;;;14.08;48.85059;102624.5;;;;-78
2022/07/06 01:10:34;;;;;;;;;;;;;;;13.74;49.24023;102622.8;;;;-78
2022/07/06 01:15:47;;;;;;;;;;;;;;;;;;;;;
2022/07/06 01:51:12;;;;;;;;;;;;;;;13.49;49.42578;102609.2;;;;-84
2022/07/06 02:12:11;;;;;;;;;;;;;;;;;;;;;
2022/07/06 02:15:15;;;;;;;;;;;;;;;13.71;49.23535;102620.4;;;;-81
2022/07/06 02:22:41;;;;;;;;;;;;;;;13.55;49.39844;102609.2;;;;-81
2022/07/06 02:37:00;;;;;;;;;;;;;;;13.59;49.31348;102610.3;;;;-82
2022/07/06 02:53:15;;;;;;;;;;;;;;;13.85;48.90332;102611.1;;;;-84
2022/07/06 02:56:24;;;;;;;;;;;;;;;13.61;49.31543;102615.2;;;;-82
2022/07/06 03:13:51;;;;;;;;;;;;;;;13.99;48.81836;102604.7;;;;-79
2022/07/06 03:19:21;;;;;;;;;;;;;;;13.91;49.16895;102611.3;;;;-82
2022/07/06 03:24:20;;;;;;;;;;;;;;;13.94;49.20605;102605.8;;;;-81
2022/07/06 03:29:28;;;;;;;;;;;;;;;14.24;48.8916;102607;;;;-79
2022/07/06 03:33:53;;;;;;;;;;;;;;;14.05;49.38672;102609.1;;;;-79
2022/07/06 03:38:56;;;;;;;;;;;;;;;14.1;49.22461;102610;;;;-78
2022/07/06 03:44:07;;;;;;;;;;;;;;;14.19;49.13281;102612.9;;;;-78
2022/07/06 03:48:55;;;;;;;;;;;;;;;14.23;48.97949;102613.6;;;;-77
2022/07/06 03:51:40;;;;;;;1.7;0.6;;;;;;;;;;;;;-78
2022/07/06 03:53:51;;;;;;;;;;;;;;;14.27;48.95117;102613.2;;;;-78
2022/07/06 03:58:51;;;;;;;;;;;;;;;14.33;49.03613;102605.4;;;;-78
2022/07/06 04:04:07;;;;;;;;;;;;;;;14.35;48.9248;102604.7;;;;-79
2022/07/06 04:09:10;;;;;;;;;;;;;;;14.35;48.9248;102612.9;;;;-77
2022/07/06 04:13:51;;;;;;;;;;;;;;;14.35;48.88086;102613;;;;-77
2022/07/06 04:18:51;;;;;;;;;;;;;;;14.33;49.00195;102613.7;;;;-77
2022/07/06 04:23:53;;;;;;;;;;;;;;;14.33;48.89941;102616.1;;;;-77
2022/07/06 04:29:14;;;;;;;;;;;;;;;14.33;48.96777;102620.3;;;;-77
2022/07/06 04:29:53;;;;;;;;;;;;;;;14.69;48.69238;102615.7;;;;-78
2022/07/06 04:34:27;;;;;;;;;;;;;;;14.36;48.85938;102628.4;;;;-79
2022/07/06 04:39:27;;;;;;;;;;;;;;;14.34;48.95801;102629.6;;;;-78
2022/07/06 04:48:58;;;;;;;;;;;;;;;14.39;48.87402;102623.7;;;;-82
2022/07/06 04:51:36;;;;;;;2.2;0.4;;;;;;;;;;;;;-82
2022/07/06 04:58:59;;;;;;;;;;;;;;;14.68;48.62305;102622.4;;;;-81
2022/07/06 05:09:01;;;;;;;;;;;;;;;14.54;48.77734;102632;;;;-78
2022/07/06 05:13:43;;;;;;;;;;;;;;;14.58;48.79395;102638;;;;-78
2022/07/06 05:19:42;;;;;;;;;;;;;;;14.88;48.64648;102640.7;;;;-81
2022/07/06 05:22:03;;;;;;;2.1;0.6;;;;;;;;;;;;;-84
2022/07/06 05:43:41;;;;;;;;;;;;;;;17.45;45.47852;102632.3;;;;-81
2022/07/06 05:51:50;;;;;;;2.7;0.5;;;;;;;;;;;;;-88
2022/07/06 05:59:32;;;;;;;;;;;;;;;;;;;;;
2022/07/06 06:04:27;;;;;;;;;;;;;;;19.18;43.01074;102642.2;;;;-82
2022/07/06 06:10:00;;;;;;;;;;;;;;;20.2;41.62305;102644.6;;;;-82
2022/07/06 06:14:19;;;;;;;;;;;;;;;;;;;;;
2022/07/06 06:18:45;;;;;;;;;;;;;;;20.73;40.95117;102636.1;;;;-78
2022/07/06 06:21:39;;;;;;;2;0.5;;;;;;;;;;;;;-79
2022/07/06 06:26:47;;;;;;;;;;;;;;;21.77;39.89746;102643.3;;;;-84
2022/07/06 06:30:51;;;;;;;;;;;;;;;21.68;39.9707;102646.7;;;;-81
2022/07/06 06:35:51;;;;;;;;;;;;;;;22.07;39.82031;102644.3;;;;-84
2022/07/06 06:40:48;;;;;;;;;;;;;;;22.5;39.58301;102648;;;;-82
2022/07/06 06:45:37;;;;;;;;;;;;;;;22.9;38.96191;102642.1;;;;-83
2022/07/06 06:50:57;;;;;;;;;;;;;;;23.21;38.80469;102649;;;;-84
2022/07/06 06:51:53;;;;;;;3.1;0.4;;;;;;;;;;;;;-84
2022/07/06 06:55:42;;;;;;;;;;;;;;;23.3;38.77734;102650.4;;;;-79
2022/07/06 07:00:58;;;;;;;;;;;;;;;22.98;39.11914;102650.3;;;;-79
2022/07/06 07:06:39;;;;;;;;;;;;;;;23.01;39.21387;102654;;;;-78
2022/07/06 07:09:28;;;;;;;;;;;;;;;23.27;39.06348;102652.8;;;;-82
2022/07/06 07:17:28;;;;;;;;;;;;;;;24.02;38.2041;102658.9;;;;-82
2022/07/06 07:22:38;;;;;;;;;;;;;;;23.73;38.35352;102646.1;;;;-83
2022/07/06 07:26:50;;;;;;;;;;;;;;;23.88;38.12305;102660.9;;;;-82
2022/07/06 07:32:07;;;;;;;;;;;;;;;23.91;38.19629;102650;;;;-82
2022/07/06 07:38:35;;;;;;;;;;;;;;;24.31;37.7207;102653.9;;;;-79
2022/07/06 07:43:39;;;;;;;;;;;;;;;24.67;37.17188;102645.4;;;;-80
2022/07/06 07:52:43;;;;;;;;;;;;;;;25.52;35.95508;102639.9;;;;-78
2022/07/06 07:55:37;;;;;;;;;;;;;;;25.27;36.20215;102641.7;;;;-80
2022/07/06 08:00:28;;;;;;;;;;;;;;;25.42;35.95996;102637.1;;;;-79
2022/07/06 08:05:51;;;;;;;;;;;;;;;25.64;35.58301;102634.5;;;;-78
2022/07/06 08:08:35;;;;;;;;;;;;;;;25.75;35.73047;102632.3;;;;-79
2022/07/06 08:17:12;;;;;;;;;;;;;;;25.61;35.68555;102631.4;;;;-80
2022/07/06 08:21:52;;;;;;;0.9;0.3;;;;;;;;;;;;;-78
2022/07/06 08:22:06;;;;;;;;;;;;;;;25.7;35.51855;102623.1;;;;-79
2022/07/06 08:27:04;;;;;;;;;;;;;;;25.97;35.29492;102642.2;;;;-84
2022/07/06 08:32:05;;;;;;;;;;;;;;;26.12;35.19141;102636.7;;;;-79
2022/07/06 08:37:07;;;;;;;;;;;;;;;26.21;34.89648;102635.3;;;;-80
2022/07/06 08:42:15;;;;;;;;;;;;;;;;;;;;;
2022/07/06 08:47:08;;;;;;;;;;;;;;;26.33;34.67188;102632.5;;;;-81
2022/07/06 08:51:54;;;;;;;1.3;0.4;;;;;;;;;;;;;-80
2022/07/06 08:52:19;;;;;;;;;;;;;;;;;;;;;
2022/07/06 08:57:17;;;;;;;;;;;;;;;26.45;34.19336;102628.6;;;;-84
2022/07/06 09:07:45;;;;;;;;;;;;;;;;;;;;;
2022/07/06 09:14:54;;;;;;;;;;;;;;;26.75;33.6582;102623.3;;;;-79
2022/07/06 09:17:18;;;;;;;;;;;;;;;26.59;33.76172;102633.6;;;;-79
2022/07/06 09:22:27;;;;;;;1.1;0.4;;;;;;;;;;;;;-79
2022/07/06 09:22:47;;;;;;;;;;;;;;;26.63;33.58984;102620.8;;;;-79
2022/07/06 09:27:20;;;;;;;;;;;;;;;26.78;33.32227;102630.3;;;;-80
2022/07/06 09:32:16;;;;;;;;;;;;;;;26.93;32.73926;102631.5;;;;-81
2022/07/06 09:37:23;;;;;;;;;;;;;;;27.04;32.59668;102630;;;;-79
2022/07/06 09:47:00;;;;;;;;;;;;;;;27.51;32.15137;102621.1;;;;-71
2022/07/06 09:52:00;;;;;;;;;;;;;;;27.8;31.79883;102629.1;;;;-71
2022/07/06 09:52:11;;;;;;;1.2;0.6;;;;;;;;;;;;;-71
2022/07/06 09:57:00;;;;;;;;;;;;;;;28.11;31.29492;102635.2;;;;-72
2022/07/06 10:02:00;;;;;;;;;;;;;;;28.33;31.27539;102633.8;;;;-71
2022/07/06 10:07:00;;;;;;;;;;;;;;;28.65;30.60742;102637.1;;;;-71
2022/07/06 10:12:00;;;;;;;;;;;;;;;29;30.38477;102631;;;;-71
2022/07/06 10:17:03;;;;;;;;;;;;;;;29.31;30.11328;102628.5;;;;-72
2022/07/06 10:22:02;;;;;;;;;;;;;;;29.61;29.82813;102627.5;;;;-71
2022/07/06 10:22:12;;;;;;;1.3;0.4;;;;;;;;;;;;;-71
2022/07/06 10:27:00;;;;;;;;;;;;;;;29.88;29.44629;102621;;;;-80
2022/07/06 10:31:59;;;;;;;;;;;;;;;30.13;29.52246;102620.6;;;;-79
2022/07/06 10:36:59;;;;;;;;;;;;;;;30.38;29.26758;102616.6;;;;-81
2022/07/06 10:42:00;;;;;;;;;;;;;;;30.54;29.30176;102606;;;;-80
2022/07/06 10:47:00;;;;;;;;;;;;;;;30.68;29.09961;102602.4;;;;-79
2022/07/06 10:52:00;;;;;;;;;;;;;;;30.81;28.88477;102604.1;;;;-80
2022/07/06 10:52:09;;;;;;;2.2;0.5;;;;;;;;;;;;;-80
2022/07/06 10:56:59;;;;;;;;;;;;;;;30.95;29.17578;102603.1;;;;-75
2022/07/06 11:02:11;;;;;;;;;;;;;;;31.09;29.33691;102591.5;;;;-73
2022/07/06 11:06:59;;;;;;;;;;;;;;;31.24;29.47656;102586;;;;-72
2022/07/06 11:12:00;;;;;;;;;;;;;;;31.25;29.06543;102580.5;;;;-73
2022/07/06 11:17:13;;;;;;;;;;;;;;;31.37;29.34375;102574.1;;;;-73
2022/07/06 11:22:00;;;;;;;;;;;;;;;31.5;29.3291;102564.1;;;;-72
2022/07/06 11:22:13;;;;;;;2.3;0.6;;;;;;;;;;;;;-72
2022/07/06 11:27:00;;;;;;;;;;;;;;;31.67;28.90332;102572.4;;;;-72
2022/07/06 11:32:00;;;;;;;;;;;;;;;31.71;29.12988;102570.2;;;;-79
2022/07/06 11:37:02;;;;;;;;;;;;;;;31.79;29.18164;102570.8;;;;-73
2022/07/06 11:42:00;;;;;;;;;;;;;;;31.92;29.03711;102574.5;;;;-71
2022/07/06 11:47:01;;;;;;;;;;;;;;;32.05;29.03418;102569.6;;;;-72
2022/07/06 11:52:00;;;;;;;;;;;;;;;32.13;28.80273;102565.9;;;;-72
2022/07/06 11:52:18;;;;;;;2;0.8;;;;;;;;;;;;;-73
2022/07/06 11:57:03;;;;;;;;;;;;;;;32.17;28.71094;102555.9;;;;-74
2022/07/06 12:02:06;;;;;;;;;;;;;;;32.18;28.67676;102557.7;;;;-71
2022/07/06 12:07:03;;;;;;;;;;;;;;;32.18;28.8418;102561.8;;;;-71
2022/07/06 12:12:02;;;;;;;;;;;;;;;32.21;28.5957;102566.5;;;;-72
2022/07/06 12:16:59;;;;;;;;;;;;;;;32.23;28.44336;102573.1;;;;-71
2022/07/06 12:22:01;;;;;;;;;;;;;;;32.15;27.9668;102553.9;;;;-71
2022/07/06 12:22:27;;;;;;;1.3;0.6;;;;;;;;;;;;;-71
2022/07/06 12:27:01;;;;;;;;;;;;;;;32.16;28.35645;102555.6;;;;-72
2022/07/06 12:32:00;;;;;;;;;;;;;;;32.13;27.83594;102544.7;;;;-72
2022/07/06 12:37:00;;;;;;;;;;;;;;;32.02;27.93555;102546.2;;;;-71
2022/07/06 12:42:00;;;;;;;;;;;;;;;31.88;28.15039;102537.2;;;;-77
2022/07/06 12:47:09;;;;;;;;;;;;;;;31.78;27.80273;102542.8;;;;-80
2022/07/06 12:52:01;;;;;;;;;;;;;;;31.57;27.55371;102540.4;;;;-79
2022/07/06 12:52:34;;;;;;;2.3;0.9;;;;;;;;;;;;;-79
2022/07/06 12:57:16;;;;;;;;;;;;;;;30.38;26.0127;102537.9;;;;-78
2022/07/06 13:02:02;;;;;;;;;;;;;;;27.53;29.31738;102544.9;;;;-84
2022/07/06 13:07:01;;;;;;;;;;;;;;;26.74;30.9209;102537.7;;;;-81
2022/07/06 13:11:59;;;;;;;;;;;;;;;26.26;31.53906;102533.8;;;;-77
2022/07/06 13:16:59;;;;;;;;;;;;;;;27.34;30.51953;102533.5;;;;-79
2022/07/06 13:22:00;;;;;;;;;;;;;;;27.83;30.14355;102540.7;;;;-80
2022/07/06 13:22:32;;;;;;;2.7;0.7;;;;;;;;;;;;;-79
2022/07/06 13:26:59;;;;;;;;;;;;;;;27.89;30.07715;102539.4;;;;-79
2022/07/06 13:31:59;;;;;;;;;;;;;;;27.79;30.31543;102537.5;;;;-79
2022/07/06 13:37:00;;;;;;;;;;;;;;;27.63;30.59766;102528.1;;;;-78
2022/07/06 13:42:00;;;;;;;;;;;;;;;27.45;30.93457;102515.7;;;;-76
2022/07/06 13:46:59;;;;;;;;;;;;;;;27.23;31.24609;102514.2;;;;-71
2022/07/06 13:52:03;;;;;;;;;;;;;;;27.1;31.5752;102513;;;;-71
2022/07/06 13:52:37;;;;;;;10.1;3.6;;;;;;;;;;;;;-72
2022/07/06 13:56:59;;;;;;;;;;;;;;;26.99;31.96387;102509.7;;;;-70
2022/07/06 14:02:00;;;;;;;;;;;;;;;26.86;32.36133;102501.4;;;;-71
2022/07/06 14:07:00;;;;;;;;;;;;;;;26.78;32.78711;102492.3;;;;-72
2022/07/06 14:12:00;;;;;;;;;;;;;;;26.74;33.38867;102488.3;;;;-79
2022/07/06 14:16:59;;;;;;;;;;;;;;;26.72;33.66699;102488.1;;;;-72
2022/07/06 14:21:59;;;;;;;;;;;;;;;26.73;33.93555;102488.9;;;;-72
2022/07/06 14:22:40;;;;;;;5.7;1.9;;;;;;;;;;;;;-71
2022/07/06 14:27:43;;;;;;;;;;;;;;;26.56;34.75977;102491;;;;-85
2022/07/06 15:25:11;;;;;;;;;;;;;;;24.97;36.62988;102454.6;;;;-78
2022/07/06 15:51:19;;;;;;;;;;;;;;;23.79;38.46289;102435.6;;;;-82
2022/07/06 15:57:52;;;;;;;;;;;;;;;23.55;38.43066;102417.8;;;;-89
2022/07/06 16:03:46;;;;;;;;;;;;;;;23.79;38.27734;102416.3;;;;-88
2022/07/06 16:13:31;;;;;;;;;;;;;;;23.47;38.97656;102407.7;;;;-81
2022/07/06 16:16:14;;;;;;;;;;;;;;;22.92;39.5625;102406.7;;;;-82
2022/07/06 16:37:26;;;;;;;;;;;;;;;22.16;42.59863;102376;;;;-89
2022/07/06 16:42:29;;;;;;;;;;;;;;;22.09;42.95996;102379.9;;;;-88
2022/07/06 16:47:33;;;;;;;;;;;;;;;22.02;44.03223;102371.9;;;;-89
2022/07/06 16:52:36;;;;;;;;;;;;;;;22;43.46777;102366.9;;;;-89
2022/07/06 16:57:49;;;;;;;;;;;;;;;;;;;;;
2022/07/06 17:02:35;;;;;;;;;;;;;;;21.85;43.7168;102367.9;;;;-89
2022/07/06 17:16:19;;;;;;;;;;;;;;;21.61;44.85156;102354.3;;;;-89
2022/07/06 17:38:08;;;;;;;;;;;;;;;21.29;45.53125;102340.1;;;;-88
2022/07/06 19:22:06;;;;;;;;;;;;;;;20.76;49.76465;102245.3;;;;-84
2022/07/06 19:23:34;;;;;;;4.6;1.9;;;;;;;;;;;;;-86
2022/07/06 19:24:59;;;;;;;;;;;;;;;20.4;50.50098;102238.4;;;;-85
2022/07/06 19:29:32;;;;;;;;;;;;;;;20.3;50.90039;102236.9;;;;-86
2022/07/06 19:34:40;;;;;;;;;;;;;;;20.2;51.9043;102237.1;;;;-87
2022/07/06 20:19:21;;;;;;;;;;;;;;;20.13;53.23047;102210.6;;;;-86
2022/07/06 20:24:06;;;;;;;;;;;;;;;19.63;54.10547;102201.6;;;;-88
2022/07/06 20:35:07;;;;;;;;;;;;;;;20;54.0127;102197.6;;;;-88
2022/07/06 20:39:20;;;;;;;;;;;;;;;19.61;54.68164;102202.8;;;;-86
2022/07/06 20:44:34;;;;;;;;;;;;;;;19.8;55.01367;102203;;;;-78
2022/07/06 20:48:46;;;;;;;;;;;;;;;19.51;55.3418;102200.5;;;;-79
2022/07/06 21:07:19;;;;;;;;;;;;;;;19.35;55.58301;102194.6;;;;-82
2022/07/06 21:12:44;;;;;;;;;;;;;;;19.61;55.5127;102193.7;;;;-87
2022/07/06 21:17:58;;;;;;;;;;;;;;;19.61;56.46777;102195.6;;;;-80
2022/07/06 21:23:36;;;;;;;6.3;2.9;;;;;;;;;;;;;-79
2022/07/06 21:27:18;;;;;;;;;;;;;;;19.19;56.8584;102191.1;;;;-78
2022/07/06 21:32:12;;;;;;;;;;;;;;;19.16;57.34473;102185;;;;-80
2022/07/06 21:37:13;;;;;;;;;;;;;;;19.14;57.13672;102178.1;;;;-79
2022/07/06 21:47:09;;;;;;;;;;;;;;;19.12;57.67969;102152;;;;-79
2022/07/06 21:52:02;;;;;;;;;;;;;;;19.09;58.14258;102153.4;;;;-80
2022/07/06 21:53:29;;;;;;;8.5;2.9;;;;;;;;;;;;;-80
2022/07/06 21:57:10;;;;;;;;;;;;;;;19.09;58.38965;102136;;;;-79
2022/07/06 22:02:19;;;;;;;;;;;;;;;19.09;58.2207;102136.6;;;;-79
2022/07/06 22:07:07;;;;;;;;;;;;;;;19.08;58.24219;102135.9;;;;-79
2022/07/06 22:12:03;;;;;;;;;;;;;;;19.06;58.27246;102132.6;;;;-79
2022/07/06 22:17:27;;;;;;;;;;;;;;;19.05;58.91992;102131.9;;;;-78
2022/07/06 22:22:02;;;;;;;;;;;;;;;19.05;58.96582;102122.1;;;;-78
2022/07/06 22:23:29;;;;;;;4.4;2.3;;;;;;;;;;;;;-79
2022/07/06 22:29:13;;;;;;;;;;;;;;;19.38;58.70215;102123.5;;;;-79
2022/07/06 22:33:59;;;;;;;;;;;;;;;19.06;58.9541;102118.4;;;;-80
2022/07/06 22:44:23;;;;;;;;;;;;;;;19.24;58.50098;102105.9;;;;-79
2022/07/06 22:51:27;;;;;;;;;;;;;;;19.52;58.0957;102106;;;;-81
2022/07/06 22:52:50;;;;;;;;;;;;;;;19.38;57.90625;102104.5;;;;-89
2022/07/06 22:53:37;;;;;;;7.3;2.2;;;;;;;;;;;;;-89
2022/07/06 23:12:53;;;;;;;;;;;;;;;19.35;58.72168;102108.6;;;;-78
2022/07/06 23:16:07;;;;;;;;;;;;;;;19;59.24219;102102;;;;-80
2022/07/06 23:21:11;;;;;;;;;;;;;;;19;58.83301;102098.5;;;;-80
2022/07/06 23:23:48;;;;;;;3.6;1.5;;;;;;;;;;;;;-78
2022/07/06 23:28:06;;;;;;;;;;;;;;;18.98;58.74023;102085.8;;;;-81
2022/07/06 23:32:43;;;;;;;;;;;;;;;18.98;58.39941;102073.3;;;;-79
2022/07/06 23:37:54;;;;;;;;;;;;;;;18.98;58.08203;102055.6;;;;-80
2022/07/06 23:47:43;;;;;;;;;;;;;;;18.94;57.87207;102053;;;;-79
2022/07/06 23:53:38;;;;;;;5.2;1.2;;;;;;;;;;;;;-79
2022/07/06 23:57:52;;;;;;;;;;;;;;;18.91;58.23145;102047.6;;;;-80
